sensor_id;sensor_type;location;lat;lon;timestamp;P1;durP1;ratioP1;P2;durP2;ratioP2
50631;SDS011;49583;45.590;-122.498;2023-05-24T00:00:06;5.30;;;2.70;;
50631;SDS011;49583;45.590;-122.498;2023-05-24T00:02:38;6.20;;;2.30;;
50631;SDS011;49583;45.590;-122.498;2023-05-24T00:04:48;5.90;;;1.90;;
50631;SDS011;49583;45.590;-122.498;2023-05-24T00:06:57;5.30;;;2.40;;
50631;SDS011;49583;45.590;-122.498;2023-05-24T00:09:07;6.50;;;1.90;;
50631;SDS011;49583;45.590;-122.498;2023-05-24T00:11:17;4.50;;;2.10;;
50631;SDS011;49583;45.590;-122.498;2023-05-24T00:13:30;4.10;;;1.80;;
50631;SDS011;49583;45.590;-122.498;2023-05-24T00:15:40;4.90;;;1.70;;
50631;SDS011;49583;45.590;-122.498;2023-05-24T00:17:49;3.50;;;1.90;;
50631;SDS011;49583;45.590;-122.498;2023-05-24T00:20:02;4.40;;;2.00;;
50631;SDS011;49583;45.590;-122.498;2023-05-24T00:22:13;8.10;;;2.60;;
50631;SDS011;49583;45.590;-122.498;2023-05-24T00:24:25;5.30;;;2.10;;
50631;SDS011;49583;45.590;-122.498;2023-05-24T00:26:35;5.60;;;2.00;;
50631;SDS011;49583;45.590;-122.498;2023-05-24T00:28:44;6.80;;;2.30;;
50631;SDS011;49583;45.590;-122.498;2023-05-24T00:31:05;8.30;;;2.20;;
50631;SDS011;49583;45.590;-122.498;2023-05-24T00:33:14;4.80;;;2.10;;
50631;SDS011;49583;45.590;-122.498;2023-05-24T00:35:24;4.90;;;1.70;;
50631;SDS011;49583;45.590;-122.498;2023-05-24T00:37:33;4.30;;;1.60;;
50631;SDS011;49583;45.590;-122.498;2023-05-24T00:39:52;4.70;;;2.30;;
50631;SDS011;49583;45.590;-122.498;2023-05-24T00:42:02;4.90;;;2.20;;
50631;SDS011;49583;45.590;-122.498;2023-05-24T00:44:13;13.80;;;2.20;;
50631;SDS011;49583;45.590;-122.498;2023-05-24T00:46:24;7.90;;;2.20;;
50631;SDS011;49583;45.590;-122.498;2023-05-24T00:48:39;3.90;;;1.70;;
50631;SDS011;49583;45.590;-122.498;2023-05-24T00:50:49;5.50;;;2.00;;
50631;SDS011;49583;45.590;-122.498;2023-05-24T00:52:59;6.40;;;1.90;;
50631;SDS011;49583;45.590;-122.498;2023-05-24T00:55:11;6.90;;;2.20;;
50631;SDS011;49583;45.590;-122.498;2023-05-24T00:57:22;5.50;;;1.80;;
50631;SDS011;49583;45.590;-122.498;2023-05-24T00:59:32;4.40;;;1.40;;
50631;SDS011;49583;45.590;-122.498;2023-05-24T01:01:44;13.50;;;2.70;;
50631;SDS011;49583;45.590;-122.498;2023-05-24T01:04:05;5.70;;;2.00;;
50631;SDS011;49583;45.590;-122.498;2023-05-24T01:06:16;5.40;;;1.60;;
50631;SDS011;49583;45.590;-122.498;2023-05-24T01:08:30;10.30;;;2.10;;
50631;SDS011;49583;45.590;-122.498;2023-05-24T01:11:03;13.50;;;2.70;;
50631;SDS011;49583;45.590;-122.498;2023-05-24T01:13:24;10.30;;;2.10;;
50631;SDS011;49583;45.590;-122.498;2023-05-24T01:15:40;6.60;;;2.30;;
50631;SDS011;49583;45.590;-122.498;2023-05-24T01:17:58;3.10;;;1.50;;
50631;SDS011;49583;45.590;-122.498;2023-05-24T01:20:13;7.70;;;1.80;;
50631;SDS011;49583;45.590;-122.498;2023-05-24T01:22:42;4.30;;;2.10;;
50631;SDS011;49583;45.590;-122.498;2023-05-24T01:25:28;5.70;;;2.00;;
50631;SDS011;49583;45.590;-122.498;2023-05-24T01:27:54;4.20;;;2.10;;
50631;SDS011;49583;45.590;-122.498;2023-05-24T01:30:05;5.90;;;2.60;;
50631;SDS011;49583;45.590;-122.498;2023-05-24T01:32:16;6.20;;;1.80;;
50631;SDS011;49583;45.590;-122.498;2023-05-24T01:34:29;4.50;;;1.70;;
50631;SDS011;49583;45.590;-122.498;2023-05-24T01:36:42;4.80;;;1.90;;
50631;SDS011;49583;45.590;-122.498;2023-05-24T01:39:02;9.30;;;2.50;;
50631;SDS011;49583;45.590;-122.498;2023-05-24T01:41:17;3.40;;;1.90;;
50631;SDS011;49583;45.590;-122.498;2023-05-24T01:43:36;5.60;;;1.70;;
50631;SDS011;49583;45.590;-122.498;2023-05-24T01:45:54;6.20;;;1.90;;
50631;SDS011;49583;45.590;-122.498;2023-05-24T01:48:18;6.10;;;1.50;;
50631;SDS011;49583;45.590;-122.498;2023-05-24T01:50:37;7.20;;;1.90;;
50631;SDS011;49583;45.590;-122.498;2023-05-24T01:52:51;5.60;;;1.90;;
50631;SDS011;49583;45.590;-122.498;2023-05-24T01:55:05;5.00;;;1.80;;
50631;SDS011;49583;45.590;-122.498;2023-05-24T01:57:17;3.70;;;1.80;;
50631;SDS011;49583;45.590;-122.498;2023-05-24T01:59:28;5.70;;;2.20;;
50631;SDS011;49583;45.590;-122.498;2023-05-24T02:01:42;8.10;;;2.10;;
50631;SDS011;49583;45.590;-122.498;2023-05-24T02:03:57;11.10;;;2.00;;
50631;SDS011;49583;45.590;-122.498;2023-05-24T02:06:11;6.70;;;2.20;;
50631;SDS011;49583;45.590;-122.498;2023-05-24T02:08:31;5.80;;;1.90;;
50631;SDS011;49583;45.590;-122.498;2023-05-24T02:10:41;6.90;;;2.30;;
50631;SDS011;49583;45.590;-122.498;2023-05-24T02:12:51;7.60;;;2.40;;
50631;SDS011;49583;45.590;-122.498;2023-05-24T02:15:01;8.40;;;2.30;;
50631;SDS011;49583;45.590;-122.498;2023-05-24T02:17:11;5.20;;;1.60;;
50631;SDS011;49583;45.590;-122.498;2023-05-24T02:19:22;7.50;;;2.20;;
50631;SDS011;49583;45.590;-122.498;2023-05-24T02:21:42;7.70;;;2.50;;
50631;SDS011;49583;45.590;-122.498;2023-05-24T02:23:52;7.50;;;1.80;;
50631;SDS011;49583;45.590;-122.498;2023-05-24T02:26:02;7.60;;;2.10;;
50631;SDS011;49583;45.590;-122.498;2023-05-24T02:28:11;12.10;;;2.60;;
50631;SDS011;49583;45.590;-122.498;2023-05-24T02:30:21;9.00;;;2.70;;
50631;SDS011;49583;45.590;-122.498;2023-05-24T02:32:35;6.60;;;2.50;;
50631;SDS011;49583;45.590;-122.498;2023-05-24T02:34:45;6.20;;;2.00;;
50631;SDS011;49583;45.590;-122.498;2023-05-24T02:36:55;7.60;;;1.90;;
50631;SDS011;49583;45.590;-122.498;2023-05-24T02:39:05;12.90;;;2.60;;
50631;SDS011;49583;45.590;-122.498;2023-05-24T02:41:20;4.90;;;2.30;;
50631;SDS011;49583;45.590;-122.498;2023-05-24T02:43:32;6.30;;;1.80;;
50631;SDS011;49583;45.590;-122.498;2023-05-24T02:45:45;7.50;;;1.80;;
50631;SDS011;49583;45.590;-122.498;2023-05-24T02:48:06;10.30;;;2.00;;
50631;SDS011;49583;45.590;-122.498;2023-05-24T02:50:20;6.10;;;2.10;;
50631;SDS011;49583;45.590;-122.498;2023-05-24T02:52:36;7.10;;;1.70;;
50631;SDS011;49583;45.590;-122.498;2023-05-24T02:54:57;9.70;;;2.50;;
50631;SDS011;49583;45.590;-122.498;2023-05-24T02:57:18;10.20;;;2.00;;
50631;SDS011;49583;45.590;-122.498;2023-05-24T02:59:27;9.10;;;2.60;;
50631;SDS011;49583;45.590;-122.498;2023-05-24T03:01:41;13.30;;;2.40;;
50631;SDS011;49583;45.590;-122.498;2023-05-24T03:03:54;5.50;;;2.00;;
50631;SDS011;49583;45.590;-122.498;2023-05-24T03:06:05;6.30;;;2.60;;
50631;SDS011;49583;45.590;-122.498;2023-05-24T03:08:14;6.10;;;2.30;;
50631;SDS011;49583;45.590;-122.498;2023-05-24T03:10:27;7.30;;;2.20;;
50631;SDS011;49583;45.590;-122.498;2023-05-24T03:12:37;8.60;;;2.10;;
50631;SDS011;49583;45.590;-122.498;2023-05-24T03:14:57;8.60;;;2.00;;
50631;SDS011;49583;45.590;-122.498;2023-05-24T03:17:07;6.00;;;1.90;;
50631;SDS011;49583;45.590;-122.498;2023-05-24T03:19:17;7.20;;;1.50;;
50631;SDS011;49583;45.590;-122.498;2023-05-24T03:21:30;9.10;;;2.10;;
50631;SDS011;49583;45.590;-122.498;2023-05-24T03:23:41;4.00;;;2.00;;
50631;SDS011;49583;45.590;-122.498;2023-05-24T03:25:55;5.30;;;2.30;;
50631;SDS011;49583;45.590;-122.498;2023-05-24T03:28:05;7.50;;;1.80;;
50631;SDS011;49583;45.590;-122.498;2023-05-24T03:30:15;6.50;;;2.20;;
50631;SDS011;49583;45.590;-122.498;2023-05-24T03:32:29;7.30;;;2.10;;
50631;SDS011;49583;45.590;-122.498;2023-05-24T03:34:42;15.10;;;2.80;;
50631;SDS011;49583;45.590;-122.498;2023-05-24T03:36:51;5.90;;;2.00;;
50631;SDS011;49583;45.590;-122.498;2023-05-24T03:39:05;4.10;;;1.60;;
50631;SDS011;49583;45.590;-122.498;2023-05-24T03:41:30;4.60;;;2.00;;
50631;SDS011;49583;45.590;-122.498;2023-05-24T03:43:40;7.30;;;2.00;;
50631;SDS011;49583;45.590;-122.498;2023-05-24T03:45:59;5.10;;;1.80;;
50631;SDS011;49583;45.590;-122.498;2023-05-24T03:48:09;6.90;;;2.10;;
50631;SDS011;49583;45.590;-122.498;2023-05-24T03:50:19;10.30;;;2.30;;
50631;SDS011;49583;45.590;-122.498;2023-05-24T03:52:29;6.80;;;1.60;;
50631;SDS011;49583;45.590;-122.498;2023-05-24T03:54:38;11.10;;;2.20;;
50631;SDS011;49583;45.590;-122.498;2023-05-24T03:56:51;6.40;;;1.50;;
50631;SDS011;49583;45.590;-122.498;2023-05-24T03:59:03;7.90;;;1.90;;
50631;SDS011;49583;45.590;-122.498;2023-05-24T04:01:13;8.60;;;1.90;;
50631;SDS011;49583;45.590;-122.498;2023-05-24T04:03:41;5.60;;;1.90;;
50631;SDS011;49583;45.590;-122.498;2023-05-24T04:05:52;5.00;;;1.80;;
50631;SDS011;49583;45.590;-122.498;2023-05-24T04:08:05;8.10;;;2.10;;
50631;SDS011;49583;45.590;-122.498;2023-05-24T04:10:17;9.30;;;2.10;;
50631;SDS011;49583;45.590;-122.498;2023-05-24T04:12:27;7.00;;;1.80;;
50631;SDS011;49583;45.590;-122.498;2023-05-24T04:14:43;8.00;;;2.00;;
50631;SDS011;49583;45.590;-122.498;2023-05-24T04:16:55;9.40;;;2.40;;
50631;SDS011;49583;45.590;-122.498;2023-05-24T04:19:15;11.40;;;2.50;;
50631;SDS011;49583;45.590;-122.498;2023-05-24T04:21:26;9.90;;;2.40;;
50631;SDS011;49583;45.590;-122.498;2023-05-24T04:23:37;5.70;;;1.90;;
50631;SDS011;49583;45.590;-122.498;2023-05-24T04:25:49;6.90;;;2.20;;
50631;SDS011;49583;45.590;-122.498;2023-05-24T04:28:09;4.00;;;1.90;;
50631;SDS011;49583;45.590;-122.498;2023-05-24T04:30:22;7.60;;;1.90;;
50631;SDS011;49583;45.590;-122.498;2023-05-24T04:34:42;6.00;;;2.00;;
50631;SDS011;49583;45.590;-122.498;2023-05-24T04:36:52;6.00;;;1.60;;
50631;SDS011;49583;45.590;-122.498;2023-05-24T04:39:02;6.40;;;1.70;;
50631;SDS011;49583;45.590;-122.498;2023-05-24T04:41:12;12.40;;;2.30;;
50631;SDS011;49583;45.590;-122.498;2023-05-24T04:43:30;5.30;;;1.90;;
50631;SDS011;49583;45.590;-122.498;2023-05-24T04:45:40;5.60;;;2.00;;
50631;SDS011;49583;45.590;-122.498;2023-05-24T04:47:49;6.90;;;1.80;;
50631;SDS011;49583;45.590;-122.498;2023-05-24T04:50:03;6.90;;;1.90;;
50631;SDS011;49583;45.590;-122.498;2023-05-24T04:52:14;6.30;;;2.10;;
50631;SDS011;49583;45.590;-122.498;2023-05-24T04:54:23;7.20;;;1.70;;
50631;SDS011;49583;45.590;-122.498;2023-05-24T04:56:33;6.70;;;2.20;;
50631;SDS011;49583;45.590;-122.498;2023-05-24T04:58:46;5.80;;;1.50;;
50631;SDS011;49583;45.590;-122.498;2023-05-24T05:01:06;7.40;;;1.90;;
50631;SDS011;49583;45.590;-122.498;2023-05-24T05:03:15;5.80;;;1.80;;
50631;SDS011;49583;45.590;-122.498;2023-05-24T05:05:36;6.30;;;1.60;;
50631;SDS011;49583;45.590;-122.498;2023-05-24T05:07:45;8.40;;;2.30;;
50631;SDS011;49583;45.590;-122.498;2023-05-24T05:09:55;5.70;;;1.90;;
50631;SDS011;49583;45.590;-122.498;2023-05-24T05:12:05;6.50;;;1.70;;
50631;SDS011;49583;45.590;-122.498;2023-05-24T05:14:15;5.30;;;2.10;;
50631;SDS011;49583;45.590;-122.498;2023-05-24T05:16:25;7.50;;;2.00;;
50631;SDS011;49583;45.590;-122.498;2023-05-24T05:18:34;7.00;;;1.70;;
50631;SDS011;49583;45.590;-122.498;2023-05-24T05:20:44;6.90;;;2.30;;
50631;SDS011;49583;45.590;-122.498;2023-05-24T05:22:54;4.60;;;2.20;;
50631;SDS011;49583;45.590;-122.498;2023-05-24T05:25:04;6.30;;;1.90;;
50631;SDS011;49583;45.590;-122.498;2023-05-24T05:27:14;9.30;;;2.20;;
50631;SDS011;49583;45.590;-122.498;2023-05-24T05:29:23;6.50;;;1.90;;
50631;SDS011;49583;45.590;-122.498;2023-05-24T05:31:33;6.50;;;1.90;;
50631;SDS011;49583;45.590;-122.498;2023-05-24T05:33:44;6.80;;;2.10;;
50631;SDS011;49583;45.590;-122.498;2023-05-24T05:35:53;6.10;;;2.10;;
50631;SDS011;49583;45.590;-122.498;2023-05-24T05:38:14;5.80;;;1.80;;
50631;SDS011;49583;45.590;-122.498;2023-05-24T05:40:23;3.50;;;1.90;;
50631;SDS011;49583;45.590;-122.498;2023-05-24T05:42:32;4.90;;;1.80;;
50631;SDS011;49583;45.590;-122.498;2023-05-24T05:44:45;6.50;;;1.80;;
50631;SDS011;49583;45.590;-122.498;2023-05-24T05:46:54;7.70;;;2.00;;
50631;SDS011;49583;45.590;-122.498;2023-05-24T05:49:14;4.80;;;1.90;;
50631;SDS011;49583;45.590;-122.498;2023-05-24T05:51:23;8.80;;;1.80;;
50631;SDS011;49583;45.590;-122.498;2023-05-24T05:53:33;5.20;;;1.70;;
50631;SDS011;49583;45.590;-122.498;2023-05-24T05:55:46;5.10;;;1.60;;
50631;SDS011;49583;45.590;-122.498;2023-05-24T05:57:55;4.70;;;2.00;;
50631;SDS011;49583;45.590;-122.498;2023-05-24T06:00:10;6.00;;;2.10;;
50631;SDS011;49583;45.590;-122.498;2023-05-24T06:02:20;9.40;;;1.90;;
50631;SDS011;49583;45.590;-122.498;2023-05-24T06:04:30;8.70;;;2.20;;
50631;SDS011;49583;45.590;-122.498;2023-05-24T06:06:40;7.50;;;1.90;;
50631;SDS011;49583;45.590;-122.498;2023-05-24T06:08:50;7.10;;;1.70;;
50631;SDS011;49583;45.590;-122.498;2023-05-24T06:10:59;7.60;;;2.10;;
50631;SDS011;49583;45.590;-122.498;2023-05-24T06:13:09;5.70;;;1.80;;
50631;SDS011;49583;45.590;-122.498;2023-05-24T06:15:19;9.40;;;2.60;;
50631;SDS011;49583;45.590;-122.498;2023-05-24T06:17:29;6.10;;;1.90;;
50631;SDS011;49583;45.590;-122.498;2023-05-24T06:19:39;4.80;;;1.80;;
50631;SDS011;49583;45.590;-122.498;2023-05-24T06:21:48;5.20;;;1.80;;
50631;SDS011;49583;45.590;-122.498;2023-05-24T06:24:07;12.70;;;2.30;;
50631;SDS011;49583;45.590;-122.498;2023-05-24T06:26:16;11.20;;;2.20;;
50631;SDS011;49583;45.590;-122.498;2023-05-24T06:28:27;7.70;;;2.20;;
50631;SDS011;49583;45.590;-122.498;2023-05-24T06:30:36;7.60;;;2.00;;
50631;SDS011;49583;45.590;-122.498;2023-05-24T06:32:49;9.20;;;2.20;;
50631;SDS011;49583;45.590;-122.498;2023-05-24T06:34:59;8.00;;;2.60;;
50631;SDS011;49583;45.590;-122.498;2023-05-24T06:37:09;5.60;;;1.80;;
50631;SDS011;49583;45.590;-122.498;2023-05-24T06:39:22;6.70;;;2.30;;
50631;SDS011;49583;45.590;-122.498;2023-05-24T06:41:32;10.80;;;2.40;;
50631;SDS011;49583;45.590;-122.498;2023-05-24T06:43:41;7.70;;;2.50;;
50631;SDS011;49583;45.590;-122.498;2023-05-24T06:45:51;13.60;;;2.90;;
50631;SDS011;49583;45.590;-122.498;2023-05-24T06:48:01;8.20;;;2.50;;
50631;SDS011;49583;45.590;-122.498;2023-05-24T06:50:13;13.40;;;2.80;;
50631;SDS011;49583;45.590;-122.498;2023-05-24T06:52:23;9.60;;;2.20;;
50631;SDS011;49583;45.590;-122.498;2023-05-24T06:54:32;9.10;;;2.30;;
50631;SDS011;49583;45.590;-122.498;2023-05-24T06:56:42;10.40;;;2.40;;
50631;SDS011;49583;45.590;-122.498;2023-05-24T06:58:51;12.30;;;2.90;;
50631;SDS011;49583;45.590;-122.498;2023-05-24T07:01:01;9.70;;;2.70;;
50631;SDS011;49583;45.590;-122.498;2023-05-24T07:03:14;10.20;;;2.50;;
50631;SDS011;49583;45.590;-122.498;2023-05-24T07:05:27;8.20;;;2.80;;
50631;SDS011;49583;45.590;-122.498;2023-05-24T07:07:41;11.10;;;2.10;;
50631;SDS011;49583;45.590;-122.498;2023-05-24T07:09:54;8.60;;;2.50;;
50631;SDS011;49583;45.590;-122.498;2023-05-24T07:12:04;10.90;;;2.50;;
50631;SDS011;49583;45.590;-122.498;2023-05-24T07:14:14;6.10;;;2.70;;
50631;SDS011;49583;45.590;-122.498;2023-05-24T07:16:24;12.00;;;2.50;;
50631;SDS011;49583;45.590;-122.498;2023-05-24T07:18:34;8.30;;;2.20;;
50631;SDS011;49583;45.590;-122.498;2023-05-24T07:22:56;8.00;;;2.70;;
50631;SDS011;49583;45.590;-122.498;2023-05-24T07:25:08;9.30;;;2.60;;
50631;SDS011;49583;45.590;-122.498;2023-05-24T07:27:22;8.50;;;2.40;;
50631;SDS011;49583;45.590;-122.498;2023-05-24T07:29:32;9.90;;;2.40;;
50631;SDS011;49583;45.590;-122.498;2023-05-24T07:31:45;6.50;;;2.40;;
50631;SDS011;49583;45.590;-122.498;2023-05-24T07:33:56;11.20;;;2.80;;
50631;SDS011;49583;45.590;-122.498;2023-05-24T07:36:05;9.20;;;2.10;;
50631;SDS011;49583;45.590;-122.498;2023-05-24T07:38:18;11.20;;;2.80;;
50631;SDS011;49583;45.590;-122.498;2023-05-24T07:40:33;9.10;;;2.00;;
50631;SDS011;49583;45.590;-122.498;2023-05-24T07:44:52;17.90;;;2.60;;
50631;SDS011;49583;45.590;-122.498;2023-05-24T07:47:02;10.90;;;2.00;;
50631;SDS011;49583;45.590;-122.498;2023-05-24T07:49:12;9.40;;;2.10;;
50631;SDS011;49583;45.590;-122.498;2023-05-24T07:51:24;10.20;;;2.60;;
50631;SDS011;49583;45.590;-122.498;2023-05-24T07:53:34;13.10;;;2.70;;
50631;SDS011;49583;45.590;-122.498;2023-05-24T07:55:45;9.10;;;2.50;;
50631;SDS011;49583;45.590;-122.498;2023-05-24T07:57:55;10.70;;;2.30;;
50631;SDS011;49583;45.590;-122.498;2023-05-24T08:00:05;8.90;;;2.60;;
50631;SDS011;49583;45.590;-122.498;2023-05-24T08:02:19;8.30;;;2.00;;
50631;SDS011;49583;45.590;-122.498;2023-05-24T08:04:32;15.50;;;3.10;;
50631;SDS011;49583;45.590;-122.498;2023-05-24T08:06:41;8.70;;;2.60;;
50631;SDS011;49583;45.590;-122.498;2023-05-24T08:08:52;11.40;;;2.50;;
50631;SDS011;49583;45.590;-122.498;2023-05-24T08:11:02;16.20;;;2.90;;
50631;SDS011;49583;45.590;-122.498;2023-05-24T08:13:15;7.80;;;2.90;;
50631;SDS011;49583;45.590;-122.498;2023-05-24T08:15:28;12.00;;;2.60;;
50631;SDS011;49583;45.590;-122.498;2023-05-24T08:17:38;7.50;;;2.40;;
50631;SDS011;49583;45.590;-122.498;2023-05-24T08:19:47;15.50;;;2.50;;
50631;SDS011;49583;45.590;-122.498;2023-05-24T08:22:00;13.30;;;3.30;;
50631;SDS011;49583;45.590;-122.498;2023-05-24T08:24:11;12.20;;;2.70;;
50631;SDS011;49583;45.590;-122.498;2023-05-24T08:26:21;8.70;;;2.90;;
50631;SDS011;49583;45.590;-122.498;2023-05-24T08:28:30;14.00;;;3.60;;
50631;SDS011;49583;45.590;-122.498;2023-05-24T08:30:40;17.00;;;2.80;;
50631;SDS011;49583;45.590;-122.498;2023-05-24T08:32:49;12.70;;;3.10;;
50631;SDS011;49583;45.590;-122.498;2023-05-24T08:34:59;9.60;;;2.50;;
50631;SDS011;49583;45.590;-122.498;2023-05-24T08:37:25;9.40;;;2.70;;
50631;SDS011;49583;45.590;-122.498;2023-05-24T08:39:36;12.20;;;2.70;;
50631;SDS011;49583;45.590;-122.498;2023-05-24T08:41:57;11.90;;;3.00;;
50631;SDS011;49583;45.590;-122.498;2023-05-24T08:44:24;14.00;;;3.20;;
50631;SDS011;49583;45.590;-122.498;2023-05-24T08:46:36;11.30;;;3.00;;
50631;SDS011;49583;45.590;-122.498;2023-05-24T08:49:07;8.70;;;2.70;;
50631;SDS011;49583;45.590;-122.498;2023-05-24T08:51:30;9.80;;;3.30;;
50631;SDS011;49583;45.590;-122.498;2023-05-24T08:53:46;15.40;;;2.90;;
50631;SDS011;49583;45.590;-122.498;2023-05-24T08:56:00;10.60;;;2.30;;
50631;SDS011;49583;45.590;-122.498;2023-05-24T08:58:14;9.70;;;3.30;;
50631;SDS011;49583;45.590;-122.498;2023-05-24T09:00:24;13.50;;;2.60;;
50631;SDS011;49583;45.590;-122.498;2023-05-24T09:02:34;15.10;;;2.60;;
50631;SDS011;49583;45.590;-122.498;2023-05-24T09:04:54;10.20;;;3.00;;
50631;SDS011;49583;45.590;-122.498;2023-05-24T09:07:05;13.10;;;3.10;;
50631;SDS011;49583;45.590;-122.498;2023-05-24T09:09:16;10.00;;;2.60;;
50631;SDS011;49583;45.590;-122.498;2023-05-24T09:11:27;12.60;;;3.20;;
50631;SDS011;49583;45.590;-122.498;2023-05-24T09:13:38;10.20;;;2.90;;
50631;SDS011;49583;45.590;-122.498;2023-05-24T09:15:50;10.80;;;2.80;;
50631;SDS011;49583;45.590;-122.498;2023-05-24T09:18:00;14.00;;;2.80;;
50631;SDS011;49583;45.590;-122.498;2023-05-24T09:20:12;10.60;;;2.90;;
50631;SDS011;49583;45.590;-122.498;2023-05-24T09:22:23;16.80;;;2.90;;
50631;SDS011;49583;45.590;-122.498;2023-05-24T09:24:41;14.60;;;3.30;;
50631;SDS011;49583;45.590;-122.498;2023-05-24T09:26:53;10.60;;;2.90;;
50631;SDS011;49583;45.590;-122.498;2023-05-24T09:29:11;13.40;;;2.80;;
50631;SDS011;49583;45.590;-122.498;2023-05-24T09:31:21;13.90;;;3.30;;
50631;SDS011;49583;45.590;-122.498;2023-05-24T09:33:46;12.20;;;2.80;;
50631;SDS011;49583;45.590;-122.498;2023-05-24T09:35:57;11.10;;;3.10;;
50631;SDS011;49583;45.590;-122.498;2023-05-24T09:38:14;14.90;;;3.00;;
50631;SDS011;49583;45.590;-122.498;2023-05-24T09:40:27;12.00;;;3.10;;
50631;SDS011;49583;45.590;-122.498;2023-05-24T09:42:47;13.50;;;3.40;;
50631;SDS011;49583;45.590;-122.498;2023-05-24T09:45:11;9.90;;;2.70;;
50631;SDS011;49583;45.590;-122.498;2023-05-24T09:47:21;13.80;;;2.80;;
50631;SDS011;49583;45.590;-122.498;2023-05-24T09:49:34;8.20;;;2.80;;
50631;SDS011;49583;45.590;-122.498;2023-05-24T09:51:45;14.70;;;3.50;;
50631;SDS011;49583;45.590;-122.498;2023-05-24T09:54:05;13.30;;;3.10;;
50631;SDS011;49583;45.590;-122.498;2023-05-24T09:56:15;9.20;;;2.90;;
50631;SDS011;49583;45.590;-122.498;2023-05-24T09:58:34;11.90;;;3.90;;
50631;SDS011;49583;45.590;-122.498;2023-05-24T10:03:37;7.90;;;3.30;;
50631;SDS011;49583;45.590;-122.498;2023-05-24T10:05:58;12.10;;;2.70;;
50631;SDS011;49583;45.590;-122.498;2023-05-24T10:08:09;11.40;;;3.30;;
50631;SDS011;49583;45.590;-122.498;2023-05-24T10:10:19;10.20;;;2.50;;
50631;SDS011;49583;45.590;-122.498;2023-05-24T10:12:30;10.20;;;2.90;;
50631;SDS011;49583;45.590;-122.498;2023-05-24T10:14:47;9.00;;;2.50;;
50631;SDS011;49583;45.590;-122.498;2023-05-24T10:16:57;12.20;;;2.90;;
50631;SDS011;49583;45.590;-122.498;2023-05-24T10:19:07;10.00;;;3.30;;
50631;SDS011;49583;45.590;-122.498;2023-05-24T10:21:16;14.20;;;3.90;;
50631;SDS011;49583;45.590;-122.498;2023-05-24T10:23:30;11.30;;;2.60;;
50631;SDS011;49583;45.590;-122.498;2023-05-24T10:28:10;15.80;;;3.50;;
50631;SDS011;49583;45.590;-122.498;2023-05-24T10:30:23;13.50;;;3.60;;
50631;SDS011;49583;45.590;-122.498;2023-05-24T10:32:38;11.50;;;4.10;;
50631;SDS011;49583;45.590;-122.498;2023-05-24T10:34:49;12.60;;;3.70;;
50631;SDS011;49583;45.590;-122.498;2023-05-24T10:36:59;18.50;;;3.70;;
50631;SDS011;49583;45.590;-122.498;2023-05-24T10:39:09;7.20;;;2.50;;
50631;SDS011;49583;45.590;-122.498;2023-05-24T10:41:18;7.70;;;3.10;;
50631;SDS011;49583;45.590;-122.498;2023-05-24T10:43:31;17.60;;;3.70;;
50631;SDS011;49583;45.590;-122.498;2023-05-24T10:45:41;8.30;;;2.50;;
50631;SDS011;49583;45.590;-122.498;2023-05-24T10:47:54;12.40;;;3.00;;
50631;SDS011;49583;45.590;-122.498;2023-05-24T10:50:14;10.20;;;3.30;;
50631;SDS011;49583;45.590;-122.498;2023-05-24T10:52:33;11.70;;;3.00;;
50631;SDS011;49583;45.590;-122.498;2023-05-24T10:54:50;9.40;;;2.80;;
50631;SDS011;49583;45.590;-122.498;2023-05-24T10:57:10;11.30;;;3.00;;
50631;SDS011;49583;45.590;-122.498;2023-05-24T10:59:27;11.70;;;3.40;;
50631;SDS011;49583;45.590;-122.498;2023-05-24T11:01:39;9.00;;;2.50;;
50631;SDS011;49583;45.590;-122.498;2023-05-24T11:03:49;14.00;;;2.80;;
50631;SDS011;49583;45.590;-122.498;2023-05-24T11:05:59;9.10;;;3.40;;
50631;SDS011;49583;45.590;-122.498;2023-05-24T11:08:08;10.10;;;3.50;;
50631;SDS011;49583;45.590;-122.498;2023-05-24T11:10:18;9.40;;;3.20;;
50631;SDS011;49583;45.590;-122.498;2023-05-24T11:12:37;8.10;;;2.60;;
50631;SDS011;49583;45.590;-122.498;2023-05-24T11:14:47;11.50;;;3.10;;
50631;SDS011;49583;45.590;-122.498;2023-05-24T11:16:58;15.50;;;2.80;;
50631;SDS011;49583;45.590;-122.498;2023-05-24T11:19:15;6.00;;;2.80;;
50631;SDS011;49583;45.590;-122.498;2023-05-24T11:21:25;14.10;;;4.40;;
50631;SDS011;49583;45.590;-122.498;2023-05-24T11:23:36;7.10;;;3.30;;
50631;SDS011;49583;45.590;-122.498;2023-05-24T11:25:47;9.50;;;3.20;;
50631;SDS011;49583;45.590;-122.498;2023-05-24T11:27:56;13.20;;;3.00;;
50631;SDS011;49583;45.590;-122.498;2023-05-24T11:30:08;11.90;;;2.80;;
50631;SDS011;49583;45.590;-122.498;2023-05-24T11:32:20;8.70;;;2.60;;
50631;SDS011;49583;45.590;-122.498;2023-05-24T11:34:29;11.30;;;3.60;;
50631;SDS011;49583;45.590;-122.498;2023-05-24T11:36:39;15.20;;;3.30;;
50631;SDS011;49583;45.590;-122.498;2023-05-24T11:38:50;7.90;;;2.70;;
50631;SDS011;49583;45.590;-122.498;2023-05-24T11:41:01;8.30;;;3.00;;
50631;SDS011;49583;45.590;-122.498;2023-05-24T11:43:12;6.40;;;2.60;;
50631;SDS011;49583;45.590;-122.498;2023-05-24T11:45:23;13.70;;;3.40;;
50631;SDS011;49583;45.590;-122.498;2023-05-24T11:47:36;6.40;;;2.70;;
50631;SDS011;49583;45.590;-122.498;2023-05-24T11:49:49;7.60;;;2.60;;
50631;SDS011;49583;45.590;-122.498;2023-05-24T11:52:00;10.30;;;3.00;;
50631;SDS011;49583;45.590;-122.498;2023-05-24T11:54:10;8.30;;;2.90;;
50631;SDS011;49583;45.590;-122.498;2023-05-24T11:56:19;11.40;;;3.70;;
50631;SDS011;49583;45.590;-122.498;2023-05-24T11:58:31;10.00;;;3.10;;
50631;SDS011;49583;45.590;-122.498;2023-05-24T12:00:50;12.90;;;3.90;;
50631;SDS011;49583;45.590;-122.498;2023-05-24T12:02:59;15.90;;;4.00;;
50631;SDS011;49583;45.590;-122.498;2023-05-24T12:05:12;13.90;;;3.30;;
50631;SDS011;49583;45.590;-122.498;2023-05-24T12:07:24;11.80;;;3.30;;
50631;SDS011;49583;45.590;-122.498;2023-05-24T12:09:33;15.60;;;3.30;;
50631;SDS011;49583;45.590;-122.498;2023-05-24T12:11:44;10.50;;;3.40;;
50631;SDS011;49583;45.590;-122.498;2023-05-24T12:13:54;14.00;;;4.00;;
50631;SDS011;49583;45.590;-122.498;2023-05-24T12:16:05;12.40;;;3.50;;
50631;SDS011;49583;45.590;-122.498;2023-05-24T12:18:21;15.90;;;3.80;;
50631;SDS011;49583;45.590;-122.498;2023-05-24T12:20:32;10.60;;;3.20;;
50631;SDS011;49583;45.590;-122.498;2023-05-24T12:22:48;12.40;;;4.50;;
50631;SDS011;49583;45.590;-122.498;2023-05-24T12:24:57;11.90;;;3.70;;
50631;SDS011;49583;45.590;-122.498;2023-05-24T12:29:18;9.90;;;3.70;;
50631;SDS011;49583;45.590;-122.498;2023-05-24T12:31:27;12.50;;;3.70;;
50631;SDS011;49583;45.590;-122.498;2023-05-24T12:33:37;11.50;;;3.80;;
50631;SDS011;49583;45.590;-122.498;2023-05-24T12:35:46;15.90;;;4.20;;
50631;SDS011;49583;45.590;-122.498;2023-05-24T12:37:58;10.50;;;3.20;;
50631;SDS011;49583;45.590;-122.498;2023-05-24T12:40:15;8.10;;;2.70;;
50631;SDS011;49583;45.590;-122.498;2023-05-24T12:42:26;11.50;;;3.50;;
50631;SDS011;49583;45.590;-122.498;2023-05-24T12:44:36;10.80;;;3.30;;
50631;SDS011;49583;45.590;-122.498;2023-05-24T12:46:46;6.20;;;3.40;;
50631;SDS011;49583;45.590;-122.498;2023-05-24T12:48:57;12.00;;;3.70;;
50631;SDS011;49583;45.590;-122.498;2023-05-24T12:51:09;11.00;;;3.80;;
50631;SDS011;49583;45.590;-122.498;2023-05-24T12:53:18;10.00;;;3.50;;